createdAt,value
2022-11-27T00:01:10.944Z,99549.78
2022-11-27T00:03:39.245Z,99552.53
2022-11-27T00:06:12.951Z,99557.97
2022-11-27T00:08:40.898Z,99562.97
2022-11-27T00:11:10.291Z,99564.34
2022-11-27T00:13:38.583Z,99562.41
2022-11-27T00:16:07.672Z,99570.94
2022-11-27T00:18:36.204Z,99566.13
2022-11-27T00:21:05.580Z,99557.03
2022-11-27T00:23:35.675Z,99555.31
2022-11-27T00:26:04.818Z,99557.53
2022-11-27T00:28:33.145Z,99546.97
2022-11-27T00:31:01.507Z,99554.31
2022-11-27T00:33:29.735Z,99559.13
2022-11-27T00:35:57.708Z,99553.13
2022-11-27T00:38:25.630Z,99559.13
2022-11-27T00:40:54.955Z,99550.81
2022-11-27T00:43:22.847Z,99543.97
2022-11-27T00:45:50.851Z,99542.38
2022-11-27T00:48:18.729Z,99551.75
2022-11-27T00:50:46.788Z,99554.09
2022-11-27T00:53:14.685Z,99550.75
2022-11-27T00:55:42.614Z,99555.16
2022-11-27T00:58:11.846Z,99555.28
2022-11-27T01:00:39.771Z,99555.47
2022-11-27T01:03:07.883Z,99547.56
2022-11-27T01:05:37.127Z,99550.91
2022-11-27T01:08:05.443Z,99544.16
2022-11-27T01:10:33.449Z,99547.59
2022-11-27T01:13:01.327Z,99540.22
2022-11-27T01:15:30.547Z,99549.56
2022-11-27T01:17:58.492Z,99547.34
2022-11-27T01:20:26.366Z,99539.09
2022-11-27T01:22:54.384Z,99539.72
2022-11-27T01:25:26.725Z,99548.00
2022-11-27T01:27:55.077Z,99541.97
2022-11-27T01:30:23.060Z,99552.34
2022-11-27T01:32:52.349Z,99540.81
2022-11-27T01:35:20.295Z,99542.94
2022-11-27T01:37:48.209Z,99538.25
2022-11-27T01:40:16.142Z,99536.97
2022-11-27T01:42:44.044Z,99542.88
2022-11-27T01:45:16.345Z,99539.19
2022-11-27T01:47:47.990Z,99535.63
2022-11-27T01:50:22.422Z,99528.56
2022-11-27T01:52:53.895Z,99528.78
2022-11-27T01:55:29.865Z,99525.44
2022-11-27T01:58:01.616Z,99522.44
2022-11-27T02:00:29.524Z,99529.88
2022-11-27T02:02:57.775Z,99532.50
2022-11-27T02:05:29.231Z,99535.75
2022-11-27T02:08:00.052Z,99545.56
2022-11-27T02:10:40.080Z,99536.47
2022-11-27T02:13:14.505Z,99538.81
2022-11-27T02:15:47.595Z,99540.25
2022-11-27T02:18:23.089Z,99540.84
2022-11-27T02:20:58.872Z,99537.56
2022-11-27T02:23:57.303Z,99537.06
2022-11-27T02:26:42.452Z,99542.06
2022-11-27T02:29:13.417Z,99540.78
2022-11-27T02:31:46.764Z,99550.63
2022-11-27T02:34:24.514Z,99546.03
2022-11-27T02:36:58.693Z,99540.38
2022-11-27T02:39:32.713Z,99544.72
2022-11-27T02:42:07.642Z,99546.06
2022-11-27T02:44:43.071Z,99552.53
2022-11-27T02:47:13.206Z,99551.28
2022-11-27T02:49:44.274Z,99558.88
2022-11-27T02:52:15.705Z,99562.19
2022-11-27T02:54:47.065Z,99561.25
2022-11-27T02:57:17.003Z,99565.94
2022-11-27T02:59:46.990Z,99558.09
2022-11-27T03:02:19.970Z,99569.41
2022-11-27T03:04:52.505Z,99561.53
2022-11-27T03:07:26.951Z,99574.34
2022-11-27T03:10:00.298Z,99564.69
2022-11-27T03:12:28.861Z,99563.41
2022-11-27T03:14:58.254Z,99565.66
2022-11-27T03:17:38.684Z,99570.41
2022-11-27T03:20:12.220Z,99570.75
2022-11-27T03:22:40.167Z,99578.88
2022-11-27T03:25:08.903Z,99575.63
2022-11-27T03:27:42.219Z,99572.03
2022-11-27T03:30:13.901Z,99569.47
2022-11-27T03:32:42.089Z,99571.22
2022-11-27T03:35:12.886Z,99568.88
2022-11-27T03:37:41.070Z,99571.00
2022-11-27T03:40:10.742Z,99567.88
2022-11-27T03:42:49.855Z,99555.78
2022-11-27T03:45:31.247Z,99563.59
2022-11-27T03:48:19.168Z,99568.47
2022-11-27T03:51:00.943Z,99573.81
2022-11-27T03:53:38.095Z,99570.50
2022-11-27T03:56:12.806Z,99574.06
2022-11-27T03:58:48.657Z,99580.31
2022-11-27T04:01:21.075Z,99569.63
2022-11-27T04:03:49.223Z,99570.38
2022-11-27T04:06:17.388Z,99571.81
2022-11-27T04:08:46.848Z,99576.91
2022-11-27T04:11:15.072Z,99577.97
2022-11-27T04:13:42.997Z,99573.69
2022-11-27T04:16:11.159Z,99575.19
2022-11-27T04:18:41.254Z,99573.59
2022-11-27T04:21:09.133Z,99568.09
2022-11-27T04:23:37.792Z,99568.91
2022-11-27T04:26:06.174Z,99575.13
2022-11-27T04:28:34.242Z,99578.56
2022-11-27T04:31:02.500Z,99578.91
2022-11-27T04:33:30.472Z,99574.22
2022-11-27T04:35:59.759Z,99582.94
2022-11-27T04:38:27.682Z,99584.16
2022-11-27T04:40:55.612Z,99580.31
2022-11-27T04:43:23.585Z,99574.66
2022-11-27T04:45:51.742Z,99576.56
2022-11-27T04:48:19.733Z,99566.38
2022-11-27T04:50:47.712Z,99573.69
2022-11-27T04:53:17.058Z,99577.28
2022-11-27T04:55:44.951Z,99573.97
2022-11-27T04:58:12.903Z,99559.94
2022-11-27T05:00:40.849Z,99561.44
2022-11-27T05:03:09.084Z,99561.78
2022-11-27T05:05:36.984Z,99556.41
2022-11-27T05:08:05.251Z,99559.88
2022-11-27T05:10:34.697Z,99556.00
2022-11-27T05:13:02.670Z,99560.84
2022-11-27T05:15:30.578Z,99558.81
2022-11-27T05:17:58.500Z,99564.97
2022-11-27T05:20:26.404Z,99567.34
2022-11-27T05:22:54.350Z,99567.72
2022-11-27T05:25:22.255Z,99563.44
2022-11-27T05:27:51.573Z,99568.09
2022-11-27T05:30:19.575Z,99573.50
2022-11-27T05:32:47.457Z,99569.56
2022-11-27T05:35:15.498Z,99569.94
2022-11-27T05:37:43.449Z,99580.84
2022-11-27T05:40:11.875Z,99586.78
2022-11-27T05:42:39.800Z,99581.81
2022-11-27T05:45:09.964Z,99584.78
2022-11-27T05:47:37.876Z,99589.00
2022-11-27T05:50:06.578Z,99589.84
2022-11-27T05:52:34.463Z,99588.56
2022-11-27T05:55:02.469Z,99585.41
2022-11-27T05:57:31.033Z,99583.47
2022-11-27T05:59:59.188Z,99579.53
2022-11-27T06:02:29.601Z,99577.59
2022-11-27T06:04:57.815Z,99574.88
2022-11-27T06:07:25.926Z,99575.72
2022-11-27T06:09:53.951Z,99577.69
2022-11-27T06:12:21.865Z,99572.19
2022-11-27T06:14:49.805Z,99569.09
2022-11-27T06:17:17.731Z,99565.94
2022-11-27T06:19:47.047Z,99575.38
2022-11-27T06:22:14.937Z,99572.81
2022-11-27T06:24:43.345Z,99578.22
2022-11-27T06:27:11.331Z,99581.66
2022-11-27T06:29:39.616Z,99570.69
2022-11-27T06:32:07.728Z,99587.88
2022-11-27T06:34:35.690Z,99580.88
2022-11-27T06:37:08.055Z,99575.38
2022-11-27T06:39:39.915Z,99578.88
2022-11-27T06:42:07.810Z,99572.66
2022-11-27T06:44:35.726Z,99564.16
2022-11-27T06:47:03.619Z,99566.28
2022-11-27T06:49:31.559Z,99570.75
2022-11-27T06:51:59.617Z,99572.66
2022-11-27T06:54:28.979Z,99567.09
2022-11-27T06:56:56.960Z,99572.84
2022-11-27T06:59:25.384Z,99570.59
2022-11-27T07:01:55.650Z,99566.72
2022-11-27T07:04:24.424Z,99575.59
2022-11-27T07:06:52.383Z,99573.63
2022-11-27T07:09:20.347Z,99571.31
2022-11-27T07:11:49.699Z,99565.44
2022-11-27T07:14:17.575Z,99559.63
2022-11-27T07:16:45.557Z,99559.25
2022-11-27T07:19:14.712Z,99559.97
2022-11-27T07:21:42.656Z,99564.94
2022-11-27T07:24:10.585Z,99571.66
2022-11-27T07:26:38.490Z,99575.84
2022-11-27T07:29:07.778Z,99564.31
2022-11-27T07:31:35.791Z,99568.16
2022-11-27T07:34:06.896Z,99573.66
2022-11-27T07:36:37.938Z,99576.78
2022-11-27T07:39:05.852Z,99577.00
2022-11-27T07:41:34.362Z,99576.09
2022-11-27T07:44:02.424Z,99580.47
2022-11-27T07:46:31.725Z,99575.75
2022-11-27T07:49:00.694Z,99569.72
2022-11-27T07:51:29.192Z,99574.34
2022-11-27T07:53:57.120Z,99580.22
2022-11-27T07:56:25.083Z,99576.25
2022-11-27T07:58:52.955Z,99571.59
2022-11-27T08:01:21.763Z,99570.13
2022-11-27T08:03:51.423Z,99576.16
2022-11-27T08:06:21.656Z,99579.91
2022-11-27T08:08:50.305Z,99584.59
2022-11-27T08:11:20.199Z,99585.63
2022-11-27T08:13:48.270Z,99591.22
2022-11-27T08:16:16.804Z,99585.81
2022-11-27T08:18:44.706Z,99590.00
2022-11-27T08:21:14.128Z,99587.13
2022-11-27T08:23:42.225Z,99590.19
2022-11-27T08:26:11.195Z,99583.78
2022-11-27T08:28:39.743Z,99580.75
2022-11-27T08:31:09.076Z,99575.00
2022-11-27T08:33:37.611Z,99571.81
2022-11-27T08:36:09.006Z,99571.59
2022-11-27T08:38:39.985Z,99574.28
2022-11-27T08:41:09.801Z,99573.44
2022-11-27T08:43:38.165Z,99572.91
2022-11-27T08:46:07.531Z,99566.63
2022-11-27T08:48:36.122Z,99566.50
2022-11-27T08:51:07.586Z,99564.53
2022-11-27T08:53:36.162Z,99556.50
2022-11-27T08:56:08.997Z,99567.25
2022-11-27T08:58:37.212Z,99566.19
2022-11-27T09:01:09.947Z,99571.34
2022-11-27T09:03:38.206Z,99570.78
2022-11-27T09:06:08.654Z,99577.47
2022-11-27T09:08:36.792Z,99569.31
2022-11-27T09:11:05.537Z,99567.97
2022-11-27T09:13:37.037Z,99560.84
2022-11-27T09:16:05.512Z,99571.09
2022-11-27T09:18:34.053Z,99565.06
2022-11-27T09:21:03.592Z,99576.41
2022-11-27T09:23:31.656Z,99567.91
2022-11-27T09:25:59.918Z,99561.19
2022-11-27T09:28:31.360Z,99571.25
2022-11-27T09:31:03.314Z,99573.28
2022-11-27T09:33:33.461Z,99569.19
2022-11-27T09:36:05.842Z,99577.94
2022-11-27T09:38:34.287Z,99568.28
2022-11-27T09:41:08.818Z,99573.03
2022-11-27T09:43:43.085Z,99575.06
2022-11-27T09:46:21.626Z,99571.91
2022-11-27T09:48:52.574Z,99567.88
2022-11-27T09:51:26.689Z,99572.88
2022-11-27T09:54:01.651Z,99571.25
2022-11-27T09:56:31.601Z,99565.88
2022-11-27T09:59:01.188Z,99567.84
2022-11-27T10:01:40.536Z,99568.19
2022-11-27T10:04:18.984Z,99571.75
2022-11-27T10:07:04.369Z,99560.53
2022-11-27T10:09:47.563Z,99562.16
2022-11-27T10:12:24.047Z,99554.22
2022-11-27T10:15:04.196Z,99549.03
2022-11-27T10:17:40.290Z,99538.56
2022-11-27T10:20:28.990Z,99544.88
2022-11-27T10:23:04.206Z,99545.25
2022-11-27T10:25:40.652Z,99541.78
2022-11-27T10:28:19.530Z,99545.09
2022-11-27T10:30:53.229Z,99547.94
2022-11-27T10:33:26.301Z,99536.00
2022-11-27T10:35:55.033Z,99541.97
2022-11-27T10:38:26.646Z,99537.03
2022-11-27T10:41:06.425Z,99538.59
2022-11-27T10:43:35.980Z,99534.81
2022-11-27T10:46:10.290Z,99526.72
2022-11-27T10:48:39.752Z,99517.63
2022-11-27T10:51:15.708Z,99518.53
2022-11-27T10:53:45.437Z,99526.38
2022-11-27T10:56:43.480Z,99524.31
2022-11-27T10:59:17.174Z,99517.28
2022-11-27T11:01:47.262Z,99508.88
2022-11-27T11:04:37.388Z,99508.78
2022-11-27T11:07:25.437Z,99504.50
2022-11-27T11:09:54.275Z,99500.00
2022-11-27T11:12:24.656Z,99497.97
2022-11-27T11:14:53.774Z,99497.78
2022-11-27T11:17:26.184Z,99492.28
2022-11-27T11:19:55.600Z,99495.72
2022-11-27T11:22:23.731Z,99493.56
2022-11-27T11:24:54.255Z,99489.53
2022-11-27T11:27:27.478Z,99485.81
2022-11-27T11:29:59.983Z,99483.19
2022-11-27T11:32:30.827Z,99481.31
2022-11-27T11:35:04.223Z,99485.00
2022-11-27T11:37:34.897Z,99492.63
2022-11-27T11:40:09.804Z,99481.66
2022-11-27T11:42:50.025Z,99482.03
2022-11-27T11:45:19.745Z,99478.66
2022-11-27T11:47:49.276Z,99480.44
2022-11-27T11:50:31.179Z,99483.28
2022-11-27T11:53:03.536Z,99480.72
2022-11-27T11:55:37.537Z,99473.06
2022-11-27T11:58:26.716Z,99469.00
2022-11-27T12:04:03.241Z,99469.63
2022-11-27T12:06:44.659Z,99465.25
2022-11-27T12:09:30.549Z,99470.66
2022-11-27T12:12:05.803Z,99472.19
2022-11-27T12:14:44.375Z,99472.66
2022-11-27T12:17:25.010Z,99465.88
2022-11-27T12:20:15.990Z,99462.00
2022-11-27T12:23:28.282Z,99447.09
2022-11-27T12:26:08.245Z,99451.06
2022-11-27T12:28:57.537Z,99453.97
2022-11-27T12:31:39.620Z,99452.47
2022-11-27T12:34:11.505Z,99462.19
2022-11-27T12:36:58.106Z,99457.34
2022-11-27T12:39:33.807Z,99455.03
2022-11-27T12:42:21.772Z,99459.66
2022-11-27T12:44:57.468Z,99456.03
2022-11-27T12:47:38.660Z,99453.72
2022-11-27T12:50:15.519Z,99457.38
2022-11-27T12:52:48.409Z,99458.56
2022-11-27T12:55:22.853Z,99455.97
2022-11-27T12:57:54.969Z,99453.53
2022-11-27T13:00:26.187Z,99448.38
2022-11-27T13:03:04.218Z,99438.59
2022-11-27T13:05:38.747Z,99439.16
2022-11-27T13:08:14.351Z,99437.97
2022-11-27T13:10:50.585Z,99433.34
2022-11-27T13:13:24.463Z,99441.28
2022-11-27T13:15:59.003Z,99434.88
2022-11-27T13:18:33.897Z,99425.31
2022-11-27T13:21:05.623Z,99431.25
2022-11-27T13:23:34.540Z,99425.31
2022-11-27T13:26:07.188Z,99434.78
2022-11-27T13:28:42.477Z,99431.38
2022-11-27T13:31:20.175Z,99438.91
2022-11-27T13:33:49.043Z,99433.22
2022-11-27T13:36:23.479Z,99430.38
2022-11-27T13:38:57.657Z,99425.31
2022-11-27T13:41:33.427Z,99432.13
2022-11-27T13:44:02.188Z,99430.78
2022-11-27T13:46:32.460Z,99432.22
2022-11-27T13:49:03.579Z,99438.94
2022-11-27T13:51:33.800Z,99432.84
2022-11-27T13:54:10.297Z,99424.94
2022-11-27T13:56:40.202Z,99424.38
2022-11-27T13:59:16.723Z,99425.97
2022-11-27T14:01:55.776Z,99436.47
2022-11-27T14:04:23.864Z,99431.69
2022-11-27T14:06:59.180Z,99428.41
2022-11-27T14:09:36.920Z,99429.88
2022-11-27T14:12:20.115Z,99425.94
2022-11-27T14:15:01.790Z,99421.16
2022-11-27T14:17:36.987Z,99423.53
2022-11-27T14:20:20.165Z,99424.34
2022-11-27T14:25:38.985Z,99429.03
2022-11-27T14:28:15.772Z,99432.66
2022-11-27T14:30:48.174Z,99440.19
2022-11-27T14:33:19.259Z,99429.84
2022-11-27T14:35:49.831Z,99438.97
2022-11-27T14:38:17.945Z,99434.53
2022-11-27T14:40:46.335Z,99434.91
2022-11-27T14:43:18.607Z,99421.47
2022-11-27T14:45:49.586Z,99423.28
2022-11-27T14:48:22.150Z,99432.38
2022-11-27T14:50:51.517Z,99419.59
2022-11-27T14:53:22.628Z,99418.66
2022-11-27T14:55:53.866Z,99419.94
2022-11-27T14:58:25.743Z,99413.25
2022-11-27T15:00:57.667Z,99412.22
2022-11-27T15:03:26.795Z,99415.38
2022-11-27T15:05:58.535Z,99412.03
2022-11-27T15:08:27.770Z,99416.94
2022-11-27T15:10:57.865Z,99404.91
2022-11-27T15:13:29.494Z,99408.19
2022-11-27T15:16:01.960Z,99403.03
2022-11-27T15:18:32.257Z,99410.56
2022-11-27T15:21:01.287Z,99408.44
2022-11-27T15:23:31.520Z,99404.06
2022-11-27T15:26:15.922Z,99403.16
2022-11-27T15:28:52.516Z,99396.13
2022-11-27T15:31:29.600Z,99400.16
2022-11-27T15:34:00.961Z,99409.53
2022-11-27T15:36:35.992Z,99415.84
2022-11-27T15:39:17.855Z,99416.22
2022-11-27T15:41:54.646Z,99410.19
2022-11-27T15:44:25.025Z,99413.63
2022-11-27T15:46:55.626Z,99407.19
2022-11-27T15:49:24.189Z,99406.34
2022-11-27T15:51:52.562Z,99403.06
2022-11-27T15:54:20.474Z,99405.06
2022-11-27T15:56:48.455Z,99410.13
2022-11-27T15:59:16.761Z,99406.94
2022-11-27T16:01:46.140Z,99399.22
2022-11-27T16:04:14.220Z,99391.50
2022-11-27T16:06:42.191Z,99398.03
2022-11-27T16:09:10.126Z,99397.91
2022-11-27T16:11:38.080Z,99403.88
2022-11-27T16:14:06.078Z,99400.88
2022-11-27T16:16:35.321Z,99397.56
2022-11-27T16:19:06.532Z,99397.56
2022-11-27T16:21:35.933Z,99393.44
2022-11-27T16:24:06.196Z,99390.13
2022-11-27T16:26:34.560Z,99392.09
2022-11-27T16:29:02.574Z,99394.97
2022-11-27T16:31:30.993Z,99375.28
2022-11-27T16:33:59.751Z,99389.06
2022-11-27T16:36:30.046Z,99385.84
2022-11-27T16:38:58.364Z,99380.88
2022-11-27T16:41:27.020Z,99378.56
2022-11-27T16:43:57.849Z,99378.91
2022-11-27T16:46:28.395Z,99377.44
2022-11-27T16:48:57.706Z,99377.72
2022-11-27T16:51:28.447Z,99372.53
2022-11-27T16:53:59.423Z,99374.78
2022-11-27T16:56:29.372Z,99368.94
2022-11-27T16:59:02.817Z,99372.31
2022-11-27T17:01:36.064Z,99376.25
2022-11-27T17:04:07.253Z,99372.59
2022-11-27T17:06:36.318Z,99374.53
2022-11-27T17:09:07.392Z,99379.56
2022-11-27T17:11:37.389Z,99371.94
2022-11-27T17:14:07.329Z,99372.41
2022-11-27T17:16:37.025Z,99366.69
2022-11-27T17:19:05.686Z,99360.25
2022-11-27T17:21:35.210Z,99367.91
2022-11-27T17:24:13.176Z,99366.78
2022-11-27T17:26:44.936Z,99362.50
2022-11-27T17:29:14.554Z,99359.31
2022-11-27T17:31:42.930Z,99353.06
2022-11-27T17:34:13.228Z,99349.28
2022-11-27T17:36:43.001Z,99349.38
2022-11-27T17:39:14.832Z,99349.53
2022-11-27T17:41:44.879Z,99348.31
2022-11-27T17:44:14.095Z,99343.34
2022-11-27T17:46:44.971Z,99343.34
2022-11-27T17:49:13.544Z,99343.22
2022-11-27T17:51:42.053Z,99343.69
2022-11-27T17:54:12.891Z,99347.91
2022-11-27T17:56:40.981Z,99339.75
2022-11-27T17:59:10.681Z,99336.59
2022-11-27T18:01:39.844Z,99335.00
2022-11-27T18:04:10.408Z,99323.88
2022-11-27T18:06:38.803Z,99324.03
2022-11-27T18:09:09.400Z,99323.53
2022-11-27T18:11:39.704Z,99314.56
2022-11-27T18:14:08.168Z,99313.25
2022-11-27T18:16:38.125Z,99314.56
2022-11-27T18:19:07.714Z,99310.19
2022-11-27T18:21:36.254Z,99312.66
2022-11-27T18:27:11.076Z,99296.44
2022-11-27T18:29:41.720Z,99291.66
2022-11-27T18:32:10.259Z,99296.03
2022-11-27T18:34:38.345Z,99289.34
2022-11-27T18:37:07.119Z,99289.34
2022-11-27T18:39:36.401Z,99283.50
2022-11-27T18:42:06.753Z,99290.69
2022-11-27T18:44:39.577Z,99287.88
2022-11-27T18:47:11.510Z,99284.91
2022-11-27T18:49:40.529Z,99283.69
2022-11-27T18:52:09.862Z,99279.34
2022-11-27T18:54:38.306Z,99280.19
2022-11-27T18:57:07.910Z,99270.78
2022-11-27T18:59:36.385Z,99267.16
2022-11-27T19:02:04.778Z,99280.59
2022-11-27T19:04:32.862Z,99276.91
2022-11-27T19:07:00.899Z,99281.00
2022-11-27T19:09:29.276Z,99287.69
2022-11-27T19:11:57.268Z,99285.56
2022-11-27T19:14:26.610Z,99294.97
2022-11-27T19:16:54.596Z,99286.84
2022-11-27T19:19:53.324Z,99295.84
2022-11-27T19:22:13.177Z,99304.41
2022-11-27T19:24:41.449Z,99298.00
2022-11-27T19:27:09.462Z,99298.50
2022-11-27T19:29:38.816Z,99293.88
2022-11-27T19:32:06.845Z,99289.16
2022-11-27T19:34:35.085Z,99293.44
2022-11-27T19:37:03.126Z,99294.25
2022-11-27T19:39:31.065Z,99300.13
2022-11-27T19:41:59.300Z,99296.03
2022-11-27T19:44:27.601Z,99291.19
2022-11-27T19:46:56.947Z,99288.44
2022-11-27T19:49:26.150Z,99278.63
2022-11-27T19:51:54.243Z,99281.78
2022-11-27T19:54:22.192Z,99275.31
2022-11-27T19:56:51.650Z,99275.88
2022-11-27T19:59:24.380Z,99269.47
2022-11-27T20:01:56.224Z,99268.78
2022-11-27T20:04:29.249Z,99265.56
2022-11-27T20:06:57.183Z,99271.19
2022-11-27T20:09:25.216Z,99273.28
2022-11-27T20:11:53.486Z,99273.09
2022-11-27T20:14:21.744Z,99266.53
2022-11-27T20:16:49.904Z,99268.28
2022-11-27T20:19:20.214Z,99260.88
2022-11-27T20:21:48.529Z,99255.41
2022-11-27T20:24:17.141Z,99250.00
2022-11-27T20:26:45.764Z,99248.66
2022-11-27T20:29:15.742Z,99243.34
2022-11-27T20:31:45.102Z,99232.16
2022-11-27T20:34:20.399Z,99229.69
2022-11-27T20:36:49.233Z,99233.28
2022-11-27T20:39:21.212Z,99225.72
2022-11-27T20:41:53.497Z,99232.88
2022-11-27T20:44:23.483Z,99239.97
2022-11-27T20:46:52.091Z,99234.34
2022-11-27T20:49:22.760Z,99232.59
2022-11-27T20:51:51.488Z,99230.34
2022-11-27T20:54:23.102Z,99219.53
2022-11-27T20:56:51.453Z,99215.34
2022-11-27T20:59:20.073Z,99227.28
2022-11-27T21:01:48.630Z,99224.03
2022-11-27T21:04:20.770Z,99231.47
2022-11-27T21:06:50.878Z,99225.78
2022-11-27T21:09:20.661Z,99228.13
2022-11-27T21:11:49.027Z,99224.88
2022-11-27T21:14:18.274Z,99225.00
2022-11-27T21:16:48.859Z,99224.19
2022-11-27T21:19:20.095Z,99217.78
2022-11-27T21:21:48.766Z,99227.53
2022-11-27T21:24:18.580Z,99223.53
2022-11-27T21:26:47.338Z,99219.69
2022-11-27T21:29:16.915Z,99215.00
2022-11-27T21:31:47.049Z,99218.72
2022-11-27T21:34:16.428Z,99221.28
2022-11-27T21:36:45.559Z,99212.19
2022-11-27T21:39:20.236Z,99223.41
2022-11-27T21:41:52.349Z,99217.84
2022-11-27T21:44:22.342Z,99217.78
2022-11-27T21:46:51.302Z,99218.75
2022-11-27T21:49:21.664Z,99209.00
2022-11-27T21:51:53.235Z,99216.38
2022-11-27T21:54:24.622Z,99217.00
2022-11-27T21:56:54.227Z,99215.75
2022-11-27T21:59:22.329Z,99206.47
2022-11-27T22:01:50.412Z,99205.22
2022-11-27T22:04:18.894Z,99200.66
2022-11-27T22:06:47.192Z,99197.59
2022-11-27T22:09:16.220Z,99196.63
2022-11-27T22:11:45.064Z,99196.00
2022-11-27T22:14:16.317Z,99191.03
2022-11-27T22:16:46.737Z,99194.47
2022-11-27T22:19:16.562Z,99188.47
2022-11-27T22:21:45.517Z,99184.88
2022-11-27T22:24:18.860Z,99186.25
2022-11-27T22:26:48.475Z,99190.34
2022-11-27T22:29:18.094Z,99185.63
2022-11-27T22:31:46.283Z,99187.66
2022-11-27T22:34:16.962Z,99175.94
2022-11-27T22:36:46.135Z,99183.31
2022-11-27T22:39:14.424Z,99168.78
2022-11-27T22:41:43.215Z,99168.78
2022-11-27T22:44:15.698Z,99163.25
2022-11-27T22:46:46.071Z,99161.13
2022-11-27T22:49:16.421Z,99159.03
2022-11-27T22:51:44.889Z,99166.91
2022-11-27T22:54:17.205Z,99169.63
2022-11-27T22:56:46.646Z,99159.50
2022-11-27T23:02:07.226Z,99145.56
2022-11-27T23:04:37.757Z,99141.50
2022-11-27T23:07:06.714Z,99143.66
2022-11-27T23:09:34.873Z,99133.72
2022-11-27T23:12:02.921Z,99125.59
2022-11-27T23:14:30.861Z,99127.47
2022-11-27T23:16:58.922Z,99123.38
2022-11-27T23:19:28.289Z,99121.00
2022-11-27T23:21:56.309Z,99127.81
2022-11-27T23:24:24.478Z,99126.06
2022-11-27T23:26:52.445Z,99124.06
2022-11-27T23:29:20.480Z,99120.69
2022-11-27T23:31:48.591Z,99122.66
2022-11-27T23:34:20.157Z,99114.25
2022-11-27T23:36:49.544Z,99115.06
2022-11-27T23:39:17.577Z,99120.53
2022-11-27T23:41:46.356Z,99118.44
2022-11-27T23:44:14.263Z,99119.19
2022-11-27T23:46:42.279Z,99120.16
2022-11-27T23:49:10.320Z,99123.25
2022-11-27T23:51:38.282Z,99117.63
2022-11-27T23:54:11.161Z,99115.72
2022-11-27T23:56:39.910Z,99113.84
2022-11-27T23:59:08.087Z,99107.78
